Time;durP1;ratioP1;P1;durP2;ratioP2;P2;SDS_P1;SDS_P2;PMS_P1;PMS_P2;Temp;Humidity;BMP_temperature;BMP_pressure;BME280_temperature;BME280_humidity;BME280_pressure;Samples;Min_cycle;Max_cycle;Signal;HPM_P1;HPM_P2
2023/03/14 00:02:17;;;;;;;7.37;4.93;;;11.40;99.90;;;;;;4913000;29;20307;-66
2023/03/14 00:04:44;;;;;;;10.53;5.27;;;11.40;99.90;;;;;;4916381;29;20197;-66
2023/03/14 00:07:14;;;;;;;5.60;4.00;;;11.40;99.90;;;;;;4918451;29;20335;-67
2023/03/14 00:09:42;;;;;;;9.77;4.90;;;11.40;99.90;;;;;;4916527;29;20196;-66
2023/03/14 00:12:10;;;;;;;8.87;4.43;;;11.40;99.90;;;;;;4922325;29;20214;-66
2023/03/14 00:14:37;;;;;;;11.00;5.07;;;11.40;99.90;;;;;;4920571;29;20259;-66
2023/03/14 00:17:04;;;;;;;10.10;4.63;;;11.50;99.90;;;;;;4919616;29;20204;-67
2023/03/14 00:19:31;;;;;;;8.73;4.47;;;11.40;99.90;;;;;;4918968;29;20206;-66
2023/03/14 00:21:58;;;;;;;6.77;4.20;;;11.50;99.90;;;;;;4914585;29;20194;-67
2023/03/14 00:24:27;;;;;;;4.60;3.60;;;11.50;99.90;;;;;;4913911;29;20292;-67
2023/03/14 00:26:54;;;;;;;7.53;4.03;;;11.50;99.90;;;;;;4916720;29;20203;-67
2023/03/14 00:29:23;;;;;;;7.77;4.40;;;11.50;99.90;;;;;;4922313;29;20194;-67
2023/03/14 00:31:51;;;;;;;4.80;3.80;;;11.50;99.90;;;;;;4917287;29;20566;-67
2023/03/14 00:34:18;;;;;;;5.10;4.23;;;11.50;99.90;;;;;;4911963;29;20244;-67
2023/03/14 00:36:46;;;;;;;11.17;5.20;;;11.50;99.90;;;;;;4917117;29;20205;-67
2023/03/14 00:39:13;;;;;;;7.03;4.67;;;11.50;99.90;;;;;;4924872;29;20263;-67
2023/03/14 00:41:42;;;;;;;7.27;4.53;;;11.50;99.90;;;;;;4918486;29;20217;-67
2023/03/14 00:44:09;;;;;;;6.87;4.17;;;11.50;99.90;;;;;;4931621;29;20243;-67
2023/03/14 00:46:36;;;;;;;5.27;3.80;;;11.50;99.90;;;;;;4912720;29;20242;-67
2023/03/14 00:49:03;;;;;;;5.83;4.00;;;11.50;99.90;;;;;;4913677;29;20288;-67
2023/03/14 00:51:30;;;;;;;4.90;4.03;;;11.50;99.90;;;;;;4917267;29;20259;-67
2023/03/14 00:53:57;;;;;;;8.00;4.03;;;11.50;99.90;;;;;;4914362;29;20213;-66
2023/03/14 00:56:24;;;;;;;5.37;3.97;;;11.50;99.90;;;;;;4915333;29;20206;-67
2023/03/14 00:58:56;;;;;;;3.90;3.50;;;11.50;99.90;;;;;;4923605;29;20559;-67
2023/03/14 01:01:24;;;;;;;4.67;3.30;;;11.50;99.90;;;;;;4921461;29;20210;-67
2023/03/14 01:03:53;;;;;;;5.27;3.70;;;11.60;99.90;;;;;;4912923;29;20304;-67
2023/03/14 01:06:22;;;;;;;5.30;3.50;;;11.60;99.90;;;;;;4913561;29;20287;-67
2023/03/14 01:08:49;;;;;;;3.63;3.30;;;11.60;99.90;;;;;;4913670;29;20206;-67
2023/03/14 01:11:19;;;;;;;4.40;3.27;;;11.60;99.90;;;;;;4919839;29;20199;-66
2023/03/14 01:13:47;;;;;;;5.70;3.77;;;11.60;99.90;;;;;;4924582;29;20206;-67
2023/03/14 01:16:16;;;;;;;4.93;3.80;;;11.60;99.90;;;;;;4914092;29;20708;-66
2023/03/14 01:18:44;;;;;;;3.83;2.83;;;11.60;99.90;;;;;;4912879;29;20209;-67
2023/03/14 01:21:13;;;;;;;5.80;3.77;;;11.60;99.90;;;;;;4928245;29;20216;-67
2023/03/14 01:23:41;;;;;;;5.57;4.07;;;11.60;99.90;;;;;;4915651;29;20209;-66
2023/03/14 01:26:11;;;;;;;7.33;3.93;;;11.60;99.90;;;;;;4915945;29;20217;-66
2023/03/14 01:28:39;;;;;;;5.63;3.17;;;11.60;99.90;;;;;;4916625;29;20210;-67
2023/03/14 01:31:09;;;;;;;5.10;3.27;;;11.60;99.90;;;;;;4914542;29;20211;-66
2023/03/14 01:33:38;;;;;;;5.83;3.53;;;11.60;99.90;;;;;;4914485;29;20242;-66
2023/03/14 01:36:06;;;;;;;4.20;3.17;;;11.60;99.90;;;;;;4936690;29;20206;-66
2023/03/14 01:38:35;;;;;;;5.10;3.53;;;11.70;99.90;;;;;;4929521;29;20576;-66
2023/03/14 01:41:04;;;;;;;4.97;3.20;;;11.70;99.90;;;;;;4923949;29;20234;-66
2023/03/14 01:43:31;;;;;;;4.40;3.03;;;11.70;99.90;;;;;;4916321;29;20221;-66
2023/03/14 01:46:23;;;;;;;3.30;2.53;;;11.70;99.90;;;;;;4933935;29;20765;-66
2023/03/14 01:48:57;;;;;;;4.50;3.33;;;11.70;99.90;;;;;;4926435;29;20297;-66
2023/03/14 01:51:31;;;;;;;3.43;2.97;;;11.70;99.90;;;;;;4925892;29;20223;-67
2023/03/14 01:54:07;;;;;;;4.40;3.40;;;11.70;99.90;;;;;;4923526;29;20206;-66
2023/03/14 01:56:34;;;;;;;4.50;3.53;;;11.60;99.90;;;;;;4915482;29;20221;-65
2023/03/14 01:59:06;;;;;;;5.07;3.27;;;11.60;99.90;;;;;;4911027;29;20268;-66
2023/03/14 02:01:35;;;;;;;3.47;2.90;;;11.60;99.90;;;;;;4923588;29;20281;-67
2023/03/14 02:04:06;;;;;;;4.67;3.00;;;11.60;99.90;;;;;;4915047;29;20195;-65
2023/03/14 02:06:41;;;;;;;4.83;3.30;;;11.60;99.90;;;;;;4915376;29;20243;-66
2023/03/14 02:09:09;;;;;;;5.97;3.80;;;11.60;99.90;;;;;;4916984;29;20230;-66
2023/03/14 02:11:36;;;;;;;4.53;3.40;;;11.60;99.90;;;;;;4929179;29;20569;-67
2023/03/14 02:14:20;;;;;;;6.67;4.47;;;11.50;99.90;;;;;;4913175;29;20202;-67
2023/03/14 02:17:10;;;;;;;5.30;4.20;;;11.50;99.90;;;;;;4909868;29;20217;-67
2023/03/14 02:20:11;;;;;;;5.83;3.80;;;11.50;99.90;;;;;;4916488;29;20215;-67
2023/03/14 02:22:45;;;;;;;5.40;3.67;;;11.40;99.90;;;;;;4917396;29;20206;-67
2023/03/14 02:25:18;;;;;;;4.53;3.50;;;11.40;99.90;;;;;;4934291;29;20308;-66
2023/03/14 02:27:48;;;;;;;8.23;3.73;;;11.40;99.90;;;;;;4914266;29;20213;-66
2023/03/14 02:30:20;;;;;;;6.77;3.90;;;11.40;99.90;;;;;;4919039;29;20586;-66
2023/03/14 02:32:49;;;;;;;5.13;3.10;;;11.40;99.90;;;;;;4924254;29;20309;-66
2023/03/14 02:35:20;;;;;;;5.10;3.37;;;11.30;99.90;;;;;;4915823;29;20213;-66
2023/03/14 02:37:53;;;;;;;4.33;2.90;;;11.40;99.90;;;;;;4923518;29;20212;-66
2023/03/14 02:40:21;;;;;;;5.17;3.23;;;11.40;99.90;;;;;;4915150;29;20210;-66
2023/03/14 02:42:53;;;;;;;3.33;3.00;;;11.40;99.90;;;;;;4917951;29;22380;-66
2023/03/14 02:45:37;;;;;;;3.40;3.10;;;11.40;99.90;;;;;;4911035;29;20229;-66
2023/03/14 02:48:08;;;;;;;4.80;3.43;;;11.30;99.90;;;;;;4923977;29;20210;-66
2023/03/14 02:50:39;;;;;;;6.13;3.77;;;11.30;99.90;;;;;;4929801;29;20220;-66
2023/03/14 02:53:06;;;;;;;8.10;3.60;;;11.30;99.90;;;;;;4921623;29;20237;-66
2023/03/14 02:55:34;;;;;;;3.77;3.07;;;11.20;99.90;;;;;;4911236;29;20238;-66
2023/03/14 02:58:08;;;;;;;4.00;3.20;;;11.20;99.90;;;;;;4915202;29;20568;-66
2023/03/14 03:00:35;;;;;;;6.13;3.50;;;11.20;99.90;;;;;;4918251;29;20211;-65
2023/03/14 03:03:05;;;;;;;3.60;2.83;;;11.20;99.90;;;;;;4915361;29;20239;-66
2023/03/14 03:05:32;;;;;;;3.50;3.20;;;11.20;99.90;;;;;;4911372;29;20575;-66
2023/03/14 03:08:00;;;;;;;3.23;2.63;;;11.20;99.90;;;;;;4937202;28;20253;-66
2023/03/14 03:10:28;;;;;;;2.83;2.40;;;11.20;99.90;;;;;;4915256;29;20232;-66
2023/03/14 03:12:55;;;;;;;2.60;2.40;;;11.20;99.90;;;;;;4918818;29;20227;-66
2023/03/14 03:15:27;;;;;;;7.50;2.97;;;11.20;99.90;;;;;;4916955;29;20207;-66
2023/03/14 03:17:55;;;;;;;8.67;3.43;;;11.20;99.90;;;;;;4926188;29;20214;-66
2023/03/14 03:20:22;;;;;;;6.10;3.17;;;11.20;99.90;;;;;;4916300;29;20525;-66
2023/03/14 03:22:49;;;;;;;6.50;3.77;;;11.20;99.90;;;;;;4919699;29;20250;-66
2023/03/14 03:25:17;;;;;;;6.13;3.57;;;11.20;99.90;;;;;;4919296;29;20210;-65
2023/03/14 03:27:46;;;;;;;6.67;3.97;;;11.20;99.90;;;;;;4916103;29;20614;-66
2023/03/14 03:30:17;;;;;;;6.27;3.93;;;11.20;99.90;;;;;;4926653;29;20203;-66
2023/03/14 03:32:46;;;;;;;5.63;3.47;;;11.20;99.90;;;;;;4927527;29;20226;-66
2023/03/14 03:35:13;;;;;;;6.57;3.50;;;11.20;99.90;;;;;;4918163;29;20203;-66
2023/03/14 03:37:42;;;;;;;4.07;3.10;;;11.30;99.90;;;;;;4916549;29;20304;-66
2023/03/14 03:40:10;;;;;;;3.60;2.23;;;11.30;99.90;;;;;;4917240;29;20202;-66
2023/03/14 03:42:38;;;;;;;2.33;2.13;;;11.30;99.90;;;;;;4911289;29;20309;-66
2023/03/14 03:45:09;;;;;;;5.83;2.70;;;11.30;99.90;;;;;;4910431;29;20294;-66
2023/03/14 03:47:42;;;;;;;2.30;2.10;;;11.30;99.90;;;;;;4914325;29;20659;-66
2023/03/14 03:50:11;;;;;;;2.27;2.07;;;11.30;99.90;;;;;;4917176;29;20307;-66
2023/03/14 03:52:39;;;;;;;4.33;2.60;;;11.40;99.90;;;;;;4915665;29;20306;-65
2023/03/14 03:55:06;;;;;;;3.60;2.60;;;11.30;99.90;;;;;;4915496;29;20210;-65
2023/03/14 03:57:34;;;;;;;2.77;2.53;;;11.40;99.90;;;;;;4918273;29;20217;-66
2023/03/14 04:00:01;;;;;;;3.37;2.73;;;11.40;99.90;;;;;;4914423;29;20206;-66
2023/03/14 04:02:28;;;;;;;3.63;3.00;;;11.40;99.90;;;;;;4910786;29;20222;-66
2023/03/14 04:04:56;;;;;;;3.83;2.50;;;11.40;99.90;;;;;;4924739;29;20232;-66
2023/03/14 04:07:25;;;;;;;2.70;2.37;;;11.40;99.90;;;;;;4918736;29;20209;-66
2023/03/14 04:09:52;;;;;;;3.33;2.40;;;11.40;99.90;;;;;;4916969;29;20540;-65
2023/03/14 04:12:26;;;;;;;2.87;2.57;;;11.40;99.90;;;;;;4910221;29;20216;-66
2023/03/14 04:15:07;;;;;;;3.40;2.70;;;11.50;99.90;;;;;;4914499;29;20206;-66
2023/03/14 04:17:35;;;;;;;6.27;3.40;;;11.50;99.90;;;;;;4917632;29;20202;-66
2023/03/14 04:20:03;;;;;;;3.30;3.00;;;11.50;99.90;;;;;;4913226;29;20259;-66
2023/03/14 04:22:38;;;;;;;3.63;2.80;;;11.50;99.90;;;;;;4911788;29;20204;-65
2023/03/14 04:25:07;;;;;;;4.27;3.03;;;11.50;99.90;;;;;;4925084;29;20298;-65
2023/03/14 04:27:38;;;;;;;4.57;3.37;;;11.50;99.90;;;;;;4924451;29;20212;-65
2023/03/14 04:30:12;;;;;;;3.90;3.03;;;11.60;99.90;;;;;;4913255;29;20686;-66
2023/03/14 04:33:16;;;;;;;7.47;4.00;;;11.60;99.90;;;;;;4905008;29;20444;-66
2023/03/14 04:35:51;;;;;;;5.27;3.17;;;11.60;99.90;;;;;;4913734;29;20206;-66
2023/03/14 04:38:20;;;;;;;4.77;3.40;;;11.60;99.90;;;;;;4916711;29;20201;-66
2023/03/14 04:40:48;;;;;;;3.77;3.27;;;11.60;99.90;;;;;;4919134;29;20210;-66
2023/03/14 04:43:21;;;;;;;4.03;2.97;;;11.60;99.90;;;;;;4919958;29;20205;-66
2023/03/14 04:45:52;;;;;;;5.40;3.10;;;11.60;99.90;;;;;;4919748;29;20207;-66
2023/03/14 04:48:20;;;;;;;3.40;2.70;;;11.60;99.90;;;;;;4911453;29;20207;-66
2023/03/14 04:50:48;;;;;;;3.53;2.70;;;11.60;99.90;;;;;;4913647;29;20207;-66
2023/03/14 04:53:16;;;;;;;5.83;3.23;;;11.60;99.90;;;;;;4912282;29;20222;-66
2023/03/14 04:55:50;;;;;;;6.83;3.73;;;11.60;99.90;;;;;;4912639;29;20216;-66
2023/03/14 04:58:19;;;;;;;4.43;3.40;;;11.60;99.90;;;;;;4915398;29;20273;-66
2023/03/14 05:00:47;;;;;;;6.77;4.10;;;11.50;99.90;;;;;;4925154;29;20656;-66
2023/03/14 05:03:32;;;;;;;5.97;3.70;;;11.50;99.90;;;;;;4915152;29;20228;-66
2023/03/14 05:06:09;;;;;;;5.10;3.50;;;11.50;99.90;;;;;;4911822;29;20203;-66
2023/03/14 05:08:55;;;;;;;6.00;4.40;;;11.40;99.90;;;;;;4918856;29;20213;-66
2023/03/14 05:11:38;;;;;;;4.83;3.60;;;11.40;99.90;;;;;;4920239;29;20206;-65
2023/03/14 05:14:05;;;;;;;3.77;3.17;;;11.40;99.90;;;;;;4918180;29;20201;-65
2023/03/14 05:16:39;;;;;;;4.17;3.50;;;11.40;99.90;;;;;;4925752;29;20249;-66
2023/03/14 05:19:11;;;;;;;6.00;3.87;;;11.30;99.90;;;;;;4916591;29;20195;-66
2023/03/14 05:21:57;;;;;;;4.37;3.97;;;11.30;99.90;;;;;;4914040;29;20213;-65
2023/03/14 05:24:43;;;;;;;4.93;3.83;;;11.30;99.90;;;;;;4912212;29;20221;-66
2023/03/14 05:27:22;;;;;;;5.27;3.90;;;11.30;99.90;;;;;;4918120;29;20661;-66
2023/03/14 05:30:01;;;;;;;6.63;4.60;;;11.20;99.90;;;;;;4920196;29;20212;-66
2023/03/14 05:33:06;;;;;;;6.53;4.20;;;11.20;99.90;;;;;;4918419;29;20235;-66
2023/03/14 05:35:52;;;;;;;6.37;4.17;;;11.20;99.90;;;;;;4910691;29;20677;-66
2023/03/14 05:38:57;;;;;;;4.77;3.67;;;11.20;99.90;;;;;;4919867;29;20241;-66
2023/03/14 05:41:39;;;;;;;3.83;3.43;;;11.10;99.90;;;;;;4933836;29;20200;-66
2023/03/14 05:44:26;;;;;;;4.23;3.13;;;11.20;99.90;;;;;;4916588;29;20207;-66
2023/03/14 05:47:15;;;;;;;4.47;3.20;;;11.20;99.90;;;;;;4916428;29;20696;-66
2023/03/14 05:50:14;;;;;;;6.23;3.20;;;11.20;99.90;;;;;;4907151;29;20303;-66
2023/03/14 05:52:58;;;;;;;5.30;3.40;;;11.20;99.90;;;;;;4913776;29;20212;-65
2023/03/14 05:55:31;;;;;;;3.63;3.27;;;11.20;99.90;;;;;;4931529;29;20734;-66
2023/03/14 05:58:18;;;;;;;3.83;3.13;;;11.20;99.90;;;;;;4919893;29;20221;-67
2023/03/14 06:00:46;;;;;;;6.57;3.27;;;11.30;99.90;;;;;;4911477;29;20675;-67
2023/03/14 06:03:33;;;;;;;6.03;2.90;;;11.30;99.90;;;;;;4915970;29;20586;-66
2023/03/14 06:06:01;;;;;;;4.03;3.07;;;11.20;99.90;;;;;;4915354;29;20206;-67
2023/03/14 06:08:28;;;;;;;5.63;2.53;;;11.30;99.90;;;;;;4915229;29;20210;-67
2023/03/14 06:10:57;;;;;;;4.47;2.90;;;11.30;99.90;;;;;;4913255;29;20208;-66
2023/03/14 06:13:29;;;;;;;5.03;4.00;;;11.30;99.90;;;;;;4926272;29;20776;-66
2023/03/14 06:15:57;;;;;;;6.80;3.80;;;11.30;99.90;;;;;;4913793;29;20332;-66
2023/03/14 06:18:25;;;;;;;5.03;3.20;;;11.30;99.90;;;;;;4914626;29;20205;-67
2023/03/14 06:20:55;;;;;;;6.27;4.23;;;11.30;99.90;;;;;;4915151;29;20217;-66
2023/03/14 06:23:26;;;;;;;5.43;3.60;;;11.30;99.90;;;;;;4914437;29;20664;-66
2023/03/14 06:25:54;;;;;;;6.00;3.77;;;11.30;99.90;;;;;;4911989;29;20218;-66
2023/03/14 06:28:24;;;;;;;8.13;4.07;;;11.40;99.90;;;;;;4916792;29;20753;-67
2023/03/14 06:30:51;;;;;;;9.73;5.03;;;11.40;99.90;;;;;;4928618;29;20633;-67
2023/03/14 06:33:20;;;;;;;9.20;5.00;;;11.40;99.90;;;;;;4913963;29;20270;-67
2023/03/14 06:35:47;;;;;;;10.30;5.00;;;11.40;99.90;;;;;;4915206;29;20212;-66
2023/03/14 06:38:14;;;;;;;9.00;5.37;;;11.30;99.90;;;;;;4910859;29;20201;-66
2023/03/14 06:40:42;;;;;;;9.97;5.13;;;11.30;99.90;;;;;;4918391;29;20198;-66
2023/03/14 06:43:13;;;;;;;6.77;4.40;;;11.30;99.90;;;;;;4923742;29;20211;-67
2023/03/14 06:45:43;;;;;;;9.60;5.77;;;11.40;99.90;;;;;;4917417;29;20236;-66
2023/03/14 06:48:11;;;;;;;10.93;5.97;;;11.40;99.90;;;;;;4926667;29;20239;-67
2023/03/14 06:50:46;;;;;;;8.53;5.40;;;11.40;99.90;;;;;;4917581;29;20218;-66
2023/03/14 06:53:14;;;;;;;10.60;6.77;;;11.40;99.90;;;;;;4920409;29;20213;-67
2023/03/14 06:55:45;;;;;;;12.33;6.23;;;11.40;99.90;;;;;;4918396;29;20660;-66
2023/03/14 06:58:14;;;;;;;10.30;5.80;;;11.40;99.90;;;;;;4930126;29;20202;-67
2023/03/14 07:00:44;;;;;;;14.97;7.40;;;11.50;99.90;;;;;;4919935;29;20191;-65
2023/03/14 07:03:15;;;;;;;11.50;6.17;;;11.50;99.90;;;;;;4909918;29;20353;-65
2023/03/14 07:05:47;;;;;;;11.13;5.63;;;11.50;99.90;;;;;;4913757;29;20229;-66
2023/03/14 07:08:14;;;;;;;12.27;5.43;;;11.50;99.90;;;;;;4915664;29;20594;-66
2023/03/14 07:10:41;;;;;;;11.30;5.67;;;11.50;99.90;;;;;;4924545;29;20236;-66
2023/03/14 07:13:09;;;;;;;9.50;5.33;;;11.50;99.90;;;;;;4910118;29;20220;-66
2023/03/14 07:15:46;;;;;;;8.43;5.00;;;11.60;99.90;;;;;;4905826;29;20323;-66
2023/03/14 07:18:14;;;;;;;10.00;5.03;;;11.60;99.90;;;;;;4909168;29;20258;-66
2023/03/14 07:20:41;;;;;;;8.50;4.30;;;11.60;99.90;;;;;;4906494;29;20208;-66
2023/03/14 07:23:10;;;;;;;6.70;4.33;;;11.80;99.90;;;;;;4907930;29;20198;-66
2023/03/14 07:25:42;;;;;;;6.30;3.63;;;11.70;99.90;;;;;;4908080;29;20185;-66
2023/03/14 07:28:09;;;;;;;4.57;2.80;;;11.80;99.90;;;;;;4908147;29;20210;-67
2023/03/14 07:30:39;;;;;;;4.90;2.97;;;11.80;99.90;;;;;;4922083;29;20205;-67
2023/03/14 07:33:12;;;;;;;2.60;2.40;;;11.80;99.90;;;;;;4919645;29;20315;-67
2023/03/14 07:35:40;;;;;;;6.03;2.80;;;11.90;99.90;;;;;;4915837;29;20265;-66
2023/03/14 07:38:07;;;;;;;4.87;2.60;;;12.00;99.90;;;;;;4908286;29;20220;-67
2023/03/14 07:40:41;;;;;;;4.50;2.70;;;12.10;99.90;;;;;;4907164;29;20203;-65
2023/03/14 07:43:09;;;;;;;6.30;3.00;;;12.20;99.90;;;;;;4928226;29;20251;-66
2023/03/14 07:45:47;;;;;;;4.80;2.30;;;12.30;99.90;;;;;;4916583;29;20233;-67
2023/03/14 07:48:14;;;;;;;5.60;3.10;;;12.30;99.90;;;;;;4911732;29;20201;-67
2023/03/14 07:50:42;;;;;;;2.87;2.30;;;12.40;99.90;;;;;;4908436;29;20208;-66
2023/03/14 07:53:09;;;;;;;3.77;2.40;;;12.50;99.90;;;;;;4909778;29;20205;-67
2023/03/14 07:55:36;;;;;;;4.43;2.50;;;12.50;99.90;;;;;;4908955;29;20755;-66
2023/03/14 07:58:05;;;;;;;3.43;2.77;;;12.60;99.90;;;;;;4915326;29;20208;-68
2023/03/14 08:00:32;;;;;;;3.13;2.30;;;12.70;99.90;;;;;;4917749;29;20186;-67
2023/03/14 08:02:59;;;;;;;2.80;2.30;;;12.70;99.90;;;;;;4913712;29;20258;-67
2023/03/14 08:05:27;;;;;;;4.13;2.93;;;12.70;99.90;;;;;;4910394;29;20775;-67
2023/03/14 08:07:54;;;;;;;3.90;3.10;;;12.80;99.90;;;;;;4908300;29;20666;-66
2023/03/14 08:10:24;;;;;;;6.13;3.20;;;12.80;99.90;;;;;;4913189;29;20193;-67
2023/03/14 08:12:52;;;;;;;3.20;2.80;;;12.80;99.90;;;;;;4913850;29;20215;-66
2023/03/14 08:15:20;;;;;;;3.60;2.87;;;12.90;99.90;;;;;;4915709;29;20577;-67
2023/03/14 08:17:50;;;;;;;3.33;2.80;;;12.90;99.90;;;;;;4909317;29;20213;-67
2023/03/14 08:20:18;;;;;;;5.93;3.07;;;12.90;99.90;;;;;;4913925;29;20210;-66
2023/03/14 08:22:45;;;;;;;3.50;2.93;;;12.90;99.90;;;;;;4912967;29;20207;-67
2023/03/14 08:25:12;;;;;;;2.93;2.60;;;12.90;99.90;;;;;;4910450;29;20520;-67
2023/03/14 08:27:40;;;;;;;3.03;2.20;;;13.00;99.90;;;;;;4911495;29;20302;-67
2023/03/14 08:30:10;;;;;;;2.80;2.00;;;13.00;99.90;;;;;;4923576;29;20226;-66
2023/03/14 08:32:39;;;;;;;3.30;2.37;;;13.10;99.90;;;;;;4914660;29;20216;-66
2023/03/14 08:35:08;;;;;;;2.60;2.40;;;13.10;99.90;;;;;;4914293;29;20209;-66
2023/03/14 08:37:39;;;;;;;2.83;2.50;;;13.20;99.90;;;;;;4910818;29;20209;-67
2023/03/14 08:40:08;;;;;;;3.83;2.80;;;13.20;99.90;;;;;;4912191;29;20820;-67
2023/03/14 08:42:35;;;;;;;3.20;2.37;;;13.20;99.90;;;;;;4911991;29;20202;-67
2023/03/14 08:45:03;;;;;;;2.73;2.53;;;13.20;99.90;;;;;;4910914;29;20204;-67
2023/03/14 08:47:30;;;;;;;3.70;2.60;;;13.30;99.90;;;;;;4910732;29;20214;-67
2023/03/14 08:49:59;;;;;;;5.73;2.97;;;13.20;99.90;;;;;;4910568;29;20225;-67
2023/03/14 08:52:26;;;;;;;4.07;3.23;;;13.20;99.90;;;;;;4911528;29;20235;-67
2023/03/14 08:54:53;;;;;;;3.77;2.83;;;13.20;99.90;;;;;;4910100;29;20594;-66
2023/03/14 08:57:21;;;;;;;3.00;2.57;;;13.20;99.90;;;;;;4911580;29;20302;-67
2023/03/14 08:59:48;;;;;;;4.60;2.60;;;13.20;99.90;;;;;;4908309;29;20257;-67
2023/03/14 09:02:16;;;;;;;2.67;2.23;;;13.20;99.90;;;;;;4905141;29;20971;-67
2023/03/14 09:04:43;;;;;;;2.80;2.40;;;13.20;99.90;;;;;;4911102;29;20199;-67
2023/03/14 09:07:11;;;;;;;2.60;2.40;;;13.20;99.90;;;;;;4911150;29;20225;-66
2023/03/14 09:09:39;;;;;;;1.90;1.80;;;13.30;99.90;;;;;;4910948;29;20238;-65
2023/03/14 09:12:06;;;;;;;2.90;2.60;;;13.40;99.90;;;;;;4910748;29;20278;-66
2023/03/14 09:14:35;;;;;;;3.87;2.67;;;13.50;99.90;;;;;;4907549;29;20722;-67
2023/03/14 09:17:03;;;;;;;4.10;2.47;;;13.60;99.90;;;;;;4909597;29;20202;-66
2023/03/14 09:19:32;;;;;;;2.13;1.93;;;13.70;99.90;;;;;;4910179;29;20387;-67
2023/03/14 09:21:59;;;;;;;2.00;1.80;;;13.80;99.90;;;;;;4910560;29;20218;-66
2023/03/14 09:24:28;;;;;;;3.70;2.40;;;13.90;99.90;;;;;;4917663;29;20203;-67
2023/03/14 09:26:56;;;;;;;2.50;2.27;;;13.90;99.90;;;;;;4922771;29;20204;-68
2023/03/14 09:29:24;;;;;;;8.57;2.00;;;13.90;99.90;;;;;;4917216;29;20234;-66
2023/03/14 09:31:51;;;;;;;3.50;2.03;;;14.00;99.90;;;;;;4909803;29;20227;-68
2023/03/14 09:34:18;;;;;;;3.77;2.60;;;14.00;99.90;;;;;;4909112;29;20213;-66
2023/03/14 09:36:46;;;;;;;4.67;2.40;;;14.00;99.90;;;;;;4910907;29;20239;-67
2023/03/14 09:39:13;;;;;;;3.77;2.17;;;14.10;99.90;;;;;;4916042;29;20725;-67
2023/03/14 09:41:45;;;;;;;2.70;2.50;;;14.10;99.90;;;;;;4909808;29;20215;-67
2023/03/14 09:44:17;;;;;;;3.10;2.57;;;14.10;99.90;;;;;;4909991;29;20679;-67
2023/03/14 09:46:48;;;;;;;4.27;2.37;;;14.10;99.90;;;;;;4919168;29;20207;-66
2023/03/14 09:49:22;;;;;;;3.00;2.40;;;14.10;99.90;;;;;;4908140;29;20204;-66
2023/03/14 09:51:53;;;;;;;2.70;2.50;;;14.10;99.90;;;;;;4916866;29;20204;-66
2023/03/14 09:54:33;;;;;;;2.63;2.43;;;14.00;99.90;;;;;;4909653;29;20631;-66
2023/03/14 09:57:02;;;;;;;3.83;2.20;;;14.00;99.90;;;;;;4905703;29;20211;-66
2023/03/14 09:59:30;;;;;;;7.30;2.63;;;13.90;99.90;;;;;;4910765;29;20277;-67
2023/03/14 10:02:01;;;;;;;3.13;2.63;;;13.90;99.90;;;;;;4908487;29;20800;-66
2023/03/14 10:04:32;;;;;;;2.87;2.50;;;13.90;99.90;;;;;;4908578;29;20262;-67
2023/03/14 10:06:59;;;;;;;4.50;2.43;;;13.80;99.90;;;;;;4910389;29;20753;-67
2023/03/14 10:09:26;;;;;;;3.07;2.33;;;13.80;99.90;;;;;;4908922;29;20203;-67
2023/03/14 10:11:56;;;;;;;3.13;2.40;;;13.20;99.90;;;;;;4906037;29;20215;-66
2023/03/14 10:14:34;;;;;;;2.40;2.10;;;13.70;99.90;;;;;;4906506;29;20214;-66
2023/03/14 10:17:10;;;;;;;3.60;2.60;;;14.20;99.90;;;;;;4906913;29;20207;-66
2023/03/14 10:19:37;;;;;;;2.60;2.40;;;13.70;99.90;;;;;;4909047;29;20597;-66
2023/03/14 10:22:06;;;;;;;3.67;2.50;;;13.70;99.90;;;;;;4910684;29;20208;-66
2023/03/14 10:24:34;;;;;;;2.97;2.67;;;13.70;99.90;;;;;;4910051;29;20204;-66
2023/03/14 10:27:07;;;;;;;2.73;2.50;;;13.70;99.90;;;;;;4917877;29;20672;-66
2023/03/14 10:29:51;;;;;;;4.17;2.53;;;13.70;99.90;;;;;;4914522;29;20213;-67
2023/03/14 10:32:21;;;;;;;2.40;2.20;;;13.70;99.90;;;;;;4909710;29;20206;-68
2023/03/14 10:35:18;;;;;;;4.87;2.93;;;13.60;99.90;;;;;;4908596;29;20760;-67
2023/03/14 10:37:51;;;;;;;2.03;1.90;;;13.60;99.90;;;;;;4909302;29;20204;-67
2023/03/14 10:40:21;;;;;;;2.60;2.40;;;13.60;99.90;;;;;;4915924;29;20687;-67
2023/03/14 10:42:51;;;;;;;3.17;2.67;;;13.60;99.90;;;;;;4909132;29;20208;-67
2023/03/14 10:45:36;;;;;;;5.37;3.30;;;13.60;99.90;;;;;;4909652;29;20196;-66
2023/03/14 10:48:22;;;;;;;4.43;3.23;;;13.60;99.90;;;;;;4913586;29;20203;-67
2023/03/14 10:50:55;;;;;;;6.80;3.43;;;13.60;99.90;;;;;;4908893;29;20196;-67
2023/03/14 10:53:23;;;;;;;4.50;3.37;;;13.70;99.90;;;;;;4908500;29;20200;-67
2023/03/14 10:55:50;;;;;;;2.97;2.70;;;13.70;99.90;;;;;;4913955;29;20216;-67
2023/03/14 10:58:23;;;;;;;5.93;3.10;;;13.70;99.90;;;;;;4922282;29;20240;-67
2023/03/14 11:00:58;;;;;;;2.70;2.23;;;14.40;99.90;;;;;;4922370;29;20198;-68
2023/03/14 11:03:27;;;;;;;2.50;2.30;;;13.70;99.90;;;;;;4907992;29;20226;-66
2023/03/14 11:05:58;;;;;;;5.00;2.60;;;13.70;99.90;;;;;;4910960;29;20214;-66
2023/03/14 11:08:33;;;;;;;2.83;2.57;;;13.70;99.90;;;;;;4908134;29;20279;-67
2023/03/14 11:11:13;;;;;;;3.10;2.80;;;13.90;99.90;;;;;;4909594;29;20830;-66
2023/03/14 11:13:51;;;;;;;7.37;3.17;;;14.00;99.90;;;;;;4908300;29;20197;-66
2023/03/14 11:16:27;;;;;;;3.87;2.60;;;14.00;99.90;;;;;;4910007;29;20222;-66
2023/03/14 11:19:09;;;;;;;3.70;2.40;;;14.10;99.90;;;;;;4906894;29;20204;-66
2023/03/14 11:21:42;;;;;;;6.40;3.20;;;14.10;99.90;;;;;;4912046;29;20211;-66
2023/03/14 11:24:26;;;;;;;3.27;2.97;;;14.30;99.90;;;;;;4906913;29;20284;-65
2023/03/14 11:27:01;;;;;;;2.43;2.23;;;14.50;99.90;;;;;;4913420;29;20627;-67
2023/03/14 11:29:38;;;;;;;3.10;2.37;;;14.70;99.90;;;;;;4920342;29;20202;-67
2023/03/14 11:32:13;;;;;;;3.23;2.17;;;15.00;99.90;;;;;;4918440;29;20204;-67
2023/03/14 11:34:50;;;;;;;3.00;2.70;;;15.10;99.90;;;;;;4916550;29;20788;-67
2023/03/14 11:37:26;;;;;;;3.33;2.90;;;15.10;99.90;;;;;;4915265;29;20348;-67
2023/03/14 11:40:01;;;;;;;5.27;2.70;;;15.00;99.90;;;;;;4913793;29;20211;-67
2023/03/14 11:42:32;;;;;;;3.13;2.50;;;14.90;99.90;;;;;;4927180;29;20196;-67
2023/03/14 11:45:03;;;;;;;3.20;2.60;;;14.80;99.90;;;;;;4921494;29;20207;-66
2023/03/14 11:47:40;;;;;;;3.90;2.83;;;14.70;99.90;;;;;;4912638;29;20307;-67
2023/03/14 11:50:16;;;;;;;3.90;2.90;;;14.60;99.90;;;;;;4912107;29;20214;-67
2023/03/14 11:52:49;;;;;;;4.47;2.37;;;14.60;99.90;;;;;;4924411;29;20376;-68
2023/03/14 11:55:21;;;;;;;3.97;2.67;;;14.70;99.90;;;;;;4914162;29;20272;-67
2023/03/14 11:57:52;;;;;;;3.40;2.93;;;15.10;99.90;;;;;;4911559;29;20248;-67
2023/03/14 12:00:21;;;;;;;4.30;2.67;;;16.00;99.90;;;;;;4922479;29;20571;-67
2023/03/14 12:02:57;;;;;;;2.60;2.40;;;16.70;99.90;;;;;;4925093;29;20265;-68
2023/03/14 12:05:38;;;;;;;5.07;2.60;;;17.70;99.90;;;;;;4911833;29;20198;-68
2023/03/14 12:08:45;;;;;;;2.63;2.20;;;19.00;99.90;;;;;;4914988;29;20198;-68
2023/03/14 12:11:18;;;;;;;4.80;2.30;;;19.70;99.90;;;;;;4917351;29;20213;-66
2023/03/14 12:13:49;;;;;;;3.83;2.30;;;19.30;99.90;;;;;;4916683;29;20757;-66
2023/03/14 12:16:33;;;;;;;1.90;1.80;;;18.70;99.90;;;;;;4922191;29;20228;-69
2023/03/14 12:19:28;;;;;;;2.50;2.20;;;18.50;99.90;;;;;;4909926;29;20211;-66
2023/03/14 12:22:01;;;;;;;4.25;2.00;;;19.20;99.90;;;;;;4913299;29;20197;-67
2023/03/14 12:24:32;;;;;;;2.33;2.13;;;20.40;99.90;;;;;;4921483;29;20264;-67
2023/03/14 12:27:01;;;;;;;3.08;2.40;;;21.60;99.40;;;;;;4914775;29;20206;-67
2023/03/14 12:29:29;;;;;;;2.22;2.05;;;21.60;96.40;;;;;;4912156;29;20207;-67
2023/03/14 12:32:23;;;;;;;2.38;1.98;;;21.70;96.00;;;;;;4921929;29;20230;-67
2023/03/14 12:34:51;;;;;;;2.15;1.95;;;21.40;96.10;;;;;;4915157;29;20919;-67
2023/03/14 12:37:30;;;;;;;3.90;2.05;;;20.80;96.40;;;;;;4914371;29;20267;-68
2023/03/14 12:40:17;;;;;;;3.15;2.22;;;20.30;96.70;;;;;;4914144;29;20205;-67
2023/03/14 12:42:55;;;;;;;3.50;2.50;;;19.90;96.80;;;;;;4917615;29;20605;-67
2023/03/14 12:45:25;;;;;;;5.18;2.30;;;20.30;96.40;;;;;;4915760;29;20186;-67
2023/03/14 12:48:01;;;;;;;2.15;1.98;;;20.40;95.60;;;;;;4925476;29;20685;-69
2023/03/14 12:50:35;;;;;;;1.77;1.67;;;20.90;95.60;;;;;;4921037;29;20250;-67
2023/03/14 12:53:51;;;;;;;2.95;2.10;;;22.10;95.10;;;;;;4920463;29;20193;-67
2023/03/14 12:56:25;;;;;;;4.97;1.67;;;23.30;91.80;;;;;;4872067;29;20375;-68
2023/03/14 12:59:21;;;;;;;1.42;1.33;;;24.50;89.10;;;;;;4902251;29;20220;-67
2023/03/14 13:01:55;;;;;;;2.42;1.80;;;25.00;86.40;;;;;;4927101;29;20729;-67
2023/03/14 13:04:29;;;;;;;3.00;2.00;;;24.50;82.80;;;;;;4922666;29;20286;-67
2023/03/14 13:06:59;;;;;;;4.22;2.13;;;23.90;80.20;;;;;;4921878;29;20202;-67
2023/03/14 13:09:51;;;;;;;2.20;1.95;;;23.30;81.30;;;;;;4916317;29;20214;-67
2023/03/14 13:12:23;;;;;;;4.40;1.85;;;23.00;81.70;;;;;;4921922;29;20306;-67